createdAt,value
2018-11-25T19:26:14.274Z,24.73
2018-11-25T19:28:41.452Z,24.87
2018-11-25T19:31:08.581Z,25.77
2018-11-25T19:33:35.684Z,25.07
2018-11-25T19:36:02.792Z,26.37
2018-11-25T19:38:29.892Z,26.30
2018-11-25T19:40:57.000Z,25.97
2018-11-25T19:43:24.171Z,26.70
2018-11-25T19:45:51.247Z,26.63
2018-11-25T19:48:18.327Z,25.20
2018-11-25T19:50:45.430Z,27.33
2018-11-25T19:53:12.523Z,26.67
2018-11-25T19:55:40.324Z,24.43
2018-11-25T19:58:07.517Z,25.37
2018-11-25T20:00:34.777Z,24.80
2018-11-25T20:03:01.914Z,25.10
2018-11-25T20:05:29.033Z,25.00
2018-11-25T20:07:56.106Z,25.13
2018-11-25T20:10:24.378Z,25.47
2018-11-25T20:12:54.694Z,23.10
2018-11-25T20:15:21.819Z,24.67
2018-11-25T20:17:54.542Z,24.47
2018-11-25T20:20:18.277Z,23.70
2018-11-25T20:22:45.544Z,24.47
2018-11-25T20:25:13.288Z,23.73
2018-11-25T20:27:42.589Z,24.93
2018-11-25T20:30:13.348Z,24.37
2018-11-25T20:32:46.252Z,22.97
2018-11-25T20:35:13.361Z,24.50
2018-11-25T20:37:46.263Z,23.30
2018-11-25T20:40:13.367Z,22.40
2018-11-25T20:42:40.459Z,23.30
2018-11-25T20:45:14.512Z,23.37
2018-11-25T20:47:41.742Z,21.70
2018-11-25T20:50:08.837Z,22.83
2018-11-25T20:52:41.582Z,22.67
2018-11-25T20:55:08.588Z,22.63
2018-11-25T20:57:35.675Z,22.17
2018-11-25T21:00:03.136Z,22.30
2018-11-25T21:02:30.224Z,23.00
2018-11-25T21:04:57.312Z,20.23
2018-11-25T21:07:24.452Z,22.80
2018-11-25T21:09:51.541Z,21.37
2018-11-25T21:12:18.595Z,21.30
2018-11-25T21:14:45.716Z,22.63
2018-11-25T21:17:13.331Z,21.67
2018-11-25T21:19:39.935Z,20.27
2018-11-25T21:22:07.052Z,20.80
2018-11-25T21:24:34.189Z,20.20
2018-11-25T21:27:01.286Z,21.47
2018-11-25T21:29:28.376Z,21.10
2018-11-25T21:31:55.475Z,20.13
2018-11-25T21:34:22.583Z,21.63
2018-11-25T21:36:49.667Z,20.70
2018-11-25T21:39:16.761Z,20.33
2018-11-25T21:41:43.862Z,20.07
2018-11-25T21:44:10.933Z,20.17
2018-11-25T21:46:38.021Z,20.17
2018-11-25T21:49:05.105Z,20.30
2018-11-25T21:51:32.174Z,19.37
2018-11-25T21:53:59.275Z,19.83
2018-11-25T21:56:26.364Z,20.43
2018-11-25T21:58:53.472Z,18.57
2018-11-25T22:01:20.568Z,18.80
2018-11-25T22:03:47.647Z,19.37
2018-11-25T22:06:14.756Z,18.30
2018-11-25T22:08:41.862Z,17.13
2018-11-25T22:11:08.958Z,19.20
2018-11-25T22:13:36.057Z,18.73
2018-11-25T22:16:03.199Z,18.07
2018-11-25T22:18:30.279Z,16.80
2018-11-25T22:20:57.374Z,18.23
2018-11-25T22:23:24.479Z,16.67
2018-11-25T22:25:51.600Z,18.07
2018-11-25T22:28:18.678Z,19.60
2018-11-25T22:30:45.795Z,17.93
2018-11-25T22:33:12.876Z,18.03
2018-11-25T22:35:39.965Z,18.07
2018-11-25T22:38:07.087Z,17.50
2018-11-25T22:40:34.169Z,17.13
2018-11-25T22:43:01.320Z,17.53
2018-11-25T22:45:28.375Z,16.97
2018-11-25T22:47:55.468Z,15.43
2018-11-25T22:50:25.519Z,16.67
2018-11-25T22:52:49.683Z,17.13
2018-11-25T22:55:20.670Z,17.67
2018-11-25T22:57:47.807Z,17.33
2018-11-25T23:00:19.558Z,16.47
2018-11-25T23:02:46.661Z,15.43
2018-11-25T23:07:26.376Z,17.20
2018-11-25T23:09:53.448Z,16.83
2018-11-25T23:12:20.552Z,16.77
2018-11-25T23:14:47.651Z,16.13
2018-11-25T23:17:14.731Z,16.33
2018-11-25T23:19:41.837Z,16.20
2018-11-25T23:22:08.908Z,16.67
2018-11-25T23:24:36.024Z,16.47
2018-11-25T23:27:03.199Z,15.93
2018-11-25T23:29:30.272Z,16.33
2018-11-25T23:31:57.371Z,14.77
2018-11-25T23:34:24.458Z,16.73
2018-11-25T23:36:51.551Z,16.17
2018-11-25T23:39:18.657Z,15.57
2018-11-25T23:41:45.759Z,16.00
2018-11-25T23:44:12.848Z,15.73
2018-11-25T23:46:39.944Z,15.33
2018-11-25T23:49:07.029Z,16.23
2018-11-25T23:51:34.139Z,14.87
2018-11-25T23:54:01.233Z,15.73
2018-11-25T23:56:28.321Z,14.70
2018-11-25T23:58:55.400Z,14.20
